Home > Products > Valid Products > MTR

000
SAUS45 KPUB 290957
MTRSPD
METAR KSPD 290956Z AUTO 31006KT 09/08 A3007 RMK AO1 SLP140 T00940083





000
SAUS45 KPUB 290857
MTRSPD
METAR KSPD 290856Z AUTO 31008KT 10/09 A3007 RMK AO1 SLP142 T01000089
55001





000
SAUS45 KPUB 290757
MTRSPD
METAR KSPD 290756Z AUTO 27004KT 11/10 A3006 RMK AO1 SLP135 T01060100





000
SAUS45 KPUB 290657
MTRSPD
METAR KSPD 290656Z AUTO 34006KT 11/10 A3007 RMK AO1 SLP134 T01060100
402390100





000
SAUS45 KPUB 290558
MTRSPD
METAR KSPD 290556Z AUTO 30005KT 10/09 A3008 RMK AO1 SLP139 T01000094
10161 20100 53016





000
SAUS45 KPUB 290558
MTRSPD
METAR KSPD 290556Z AUTO 30005KT 10/09 A3008 RMK AO1 SLP139 T01000094
10161 20100 53016





000
SAUS45 KPUB 290457
MTRSPD
METAR KSPD 290456Z AUTO 00000KT 12/11 A3006 RMK AO1 SLP133 T01220106





000
SAUS45 KPUB 290457
MTRSPD
METAR KSPD 290456Z AUTO 00000KT 12/11 A3006 RMK AO1 SLP133 T01220106





000
SAUS45 KPUB 290357
MTRSPD
METAR KSPD 290356Z AUTO 08004KT 13/10 A3002 RMK AO1 SLP119 T01280100





000
SAUS45 KPUB 290257
MTRSPD
METAR KSPD 290256Z AUTO 02009KT 14/10 A3002 RMK AO1 SLP121 T01390100
51033





000
SAUS45 KPUB 290157
MTRSPD
METAR KSPD 290156Z AUTO 28007KT 16/09 A3002 RMK AO1 PK WND
30026/0136 SLP124 T01560089





000
SAUS45 KPUB 290057
MTRSPD
METAR KSPD 290056Z AUTO 16011KT 15/09 A2994 RMK AO1 SLP094 T01500094





000
SAUS45 KPUB 290057
MTRSPD
METAR KSPD 290056Z AUTO 16011KT 15/09 A2994 RMK AO1 SLP094 T01500094





000
SAUS45 KPUB 282358
MTRSPD
METAR KSPD 282356Z AUTO 20016G21KT 16/10 A2991 RMK AO1 PK WND
12028/2305 WSHFT 2243 PRESRR SLP086 60003 T01560100 10239 20144
55016





000
SAUS45 KPUB 282305
MTRSPD
SPECI KSPD 282303Z AUTO 11020G25KT 14/11 A2987 RMK AO1 PK WND
11026/2300 WSHFT 2243 PRESFR T01440106





000
SAUS45 KPUB 282305
MTRSPD
SPECI KSPD 282303Z AUTO 11020G25KT 14/11 A2987 RMK AO1 PK WND
11026/2300 WSHFT 2243 PRESFR T01440106





000
SAUS45 KPUB 282258
MTRSPD
METAR KSPD 282256Z AUTO 11019KT 17/08 A2987 RMK AO1 PK WND
18032/2239 WSHFT 2240 SLP071 P0003 T01670083





000
SAUS45 KPUB 282245
MTRSPD
SPECI KSPD 282244Z AUTO 17018G32KT 16/09 A2994 RMK AO1 PK WND
18032/2239 WSHFT 2224 P0003 T01610094





000
SAUS45 KPUB 282245
MTRSPD
SPECI KSPD 282244Z AUTO 17018G32KT 16/09 A2994 RMK AO1 PK WND
18032/2239 WSHFT 2224 P0003 T01610094





000
SAUS45 KPUB 282157
MTRSPD
METAR KSPD 282156Z AUTO 27012G16KT 21/09 A2989 RMK AO1 SLP070
T02060094





000
SAUS45 KPUB 282058
MTRSPD
METAR KSPD 282056Z AUTO 25003KT 20/15 A2997 RMK AO1 SLP098 T02000150
56019





000
SAUS45 KPUB 281957
MTRSPD
METAR KSPD 281956Z AUTO 24008KT 21/14 A2999 RMK AO1 PK WND
20028/1859 SLP108 T02060139





000
SAUS45 KPUB 281858
MTRSPD
METAR KSPD 281856Z AUTO 18020G28KT 23/15 A2998 RMK AO1 PK WND
19029/1843 SLP099 T02330150





000
SAUS45 KPUB 281802 COR
MTRSPD
METAR KSPD 281756Z AUTO 18023G29KT 22/16 A3003 RMK AO1 PK WND
18031/1708 SLP119 T02170156 10222 20139 55004





000
SAUS45 KPUB 281802 COR
MTRSPD
METAR KSPD 281756Z AUTO 18023G29KT 22/16 A3003 RMK AO1 PK WND
18031/1708 SLP119 T02170156 10222 20139 55004





000
SAUS45 KPUB 281658
MTRSPD
METAR KSPD 281656Z AUTO 19023G30KT 22/16 A3002 RMK AO1 PK WND
18030/1656 SLP115 T02220156





000
SAUS45 KPUB 281658
MTRSPD
METAR KSPD 281656Z AUTO 19023G30KT 22/16 A3002 RMK AO1 PK WND
18030/1656 SLP115 T02220156





000
SAUS45 KPUB 281558
MTRSPD
METAR KSPD 281556Z AUTO 19021G27KT 21/16 A3003 RMK AO1 PK WND
19028/1530 SLP118 T02110156





000
SAUS45 KPUB 281558
MTRSPD
METAR KSPD 281556Z AUTO 19021G27KT 21/16 A3003 RMK AO1 PK WND
19028/1530 SLP118 T02110156





000
SAUS45 KPUB 281457
MTRSPD
METAR KSPD 281456Z AUTO 19019G24KT 18/15 A3004 RMK AO1 SLP125
T01830150 58003





000
SAUS45 KPUB 281357
MTRSPD
METAR KSPD 281356Z AUTO 19013KT 14/14 A3005 RMK AO1 SLP135 T01440139





000
SAUS45 KPUB 281357
MTRSPD
METAR KSPD 281356Z AUTO 19013KT 14/14 A3005 RMK AO1 SLP135 T01440139





000
SAUS45 KPUB 281257
MTRSPD
METAR KSPD 281256Z AUTO 16011KT 14/14 A3006 RMK AO1 SLP133 T01440139





000
SAUS45 KPUB 281158
MTRSPD
METAR KSPD 281156Z AUTO 16012KT 14/14 A3005 RMK AO1 SLP131 70014
T01390139 10150 20133 50001





000
SAUS45 KPUB 281058
MTRSPD
METAR KSPD 281056Z AUTO 16010KT 14/14 A3006 RMK AO1 SLP136 T01440144





000
SAUS45 KPUB 280958
MTRSPD
METAR KSPD 280956Z AUTO 15010KT 14/14 A3006 RMK AO1 SLP131 T01440144





000
SAUS45 KPUB 280857
MTRSPD
METAR KSPD 280856Z AUTO 16011KT 14/14 A3005 RMK AO1 SLP119 T01390139
56015





000
SAUS45 KPUB 280857
MTRSPD
METAR KSPD 280856Z AUTO 16011KT 14/14 A3005 RMK AO1 SLP119 T01390139
56015





000
SAUS45 KPUB 280757
MTRSPD
METAR KSPD 280756Z AUTO 14009KT 14/13 A3005 RMK AO1 SLP121 T01390133





000
SAUS45 KPUB 280658
MTRSPD
METAR KSPD 280656Z AUTO 15011KT 13/13 A3005 RMK AO1 PK WND
15026/0617 SLP122 T01330128 402670089





000
SAUS45 KPUB 280557
MTRSPD
METAR KSPD 280556Z AUTO 15013KT 14/13 A3010 RMK AO1 SLP138 T01390128
10200 20139 51016





000
SAUS45 KPUB 280557
MTRSPD
METAR KSPD 280556Z AUTO 15013KT 14/13 A3010 RMK AO1 SLP138 T01390128
10200 20139 51016





000
SAUS45 KPUB 280457
MTRSPD
METAR KSPD 280456Z AUTO 10007KT 14/13 A3008 RMK AO1 SLP135 T01390128





000
SAUS45 KPUB 280357
MTRSPD
METAR KSPD 280356Z AUTO 16013KT 14/12 A3007 RMK AO1 SLP132 T01440122





000
SAUS45 KPUB 280257
MTRSPD
METAR KSPD 280256Z AUTO 13014KT 16/12 A3004 RMK AO1 SLP123 T01560117
51014





000
SAUS45 KPUB 280157
MTRSPD
METAR KSPD 280156Z AUTO 13008KT 16/11 A3002 RMK AO1 SLP119 T01560111





000
SAUS45 KPUB 280057
MTRSPD
METAR KSPD 280056Z AUTO 12010KT 18/12 A3002 RMK AO1 SLP122 T01780117





000
SAUS45 KPUB 280057
MTRSPD
METAR KSPD 280056Z AUTO 12010KT 18/12 A3002 RMK AO1 SLP122 T01780117





000
SAUS45 KPUB 272357
MTRSPD
METAR KSPD 272356Z AUTO 05013KT 18/12 A2999 RMK AO1 SLP118 60014
T01830117 10267 20139 58003





000
SAUS45 KPUB 272357
MTRSPD
METAR KSPD 272356Z AUTO 05013KT 18/12 A2999 RMK AO1 SLP118 60014
T01830117 10267 20139 58003





000
SAUS45 KPUB 272257
MTRSPD
METAR KSPD 272256Z AUTO 01012KT 16/12 A3004 RMK AO1 PK WND
35038/2215 WSHFT 2146 SLP136 P0012 T01610117





000
SAUS45 KPUB 272257
MTRSPD
METAR KSPD 272256Z AUTO 01012KT 16/12 A3004 RMK AO1 PK WND
35038/2215 WSHFT 2146 SLP136 P0012 T01610117





000
SAUS45 KPUB 272207
MTRSPD
SPECI KSPD 272206Z AUTO 33027G37KT 18/09 A3002 RMK AO1 PK WND
33037/2200 WSHFT 2146 T01780094





000
SAUS45 KPUB 272157
MTRSPD
METAR KSPD 272156Z AUTO 32022G29KT 19/09 A3002 RMK AO1 PK WND
30029/2152 SLP122 P0002 T01890089





000
SAUS45 KPUB 272057
MTRSPD
METAR KSPD 272056Z AUTO 15010KT 26/09 A3000 RMK AO1 SLP106 T02560094
58023





000
SAUS45 KPUB 272057
MTRSPD
METAR KSPD 272056Z AUTO 15010KT 26/09 A3000 RMK AO1 SLP106 T02560094
58023





000
SAUS45 KPUB 271957
MTRSPD
METAR KSPD 271956Z AUTO 20013G19KT 26/10 A3004 RMK AO1 SLP113
T02560100





000
SAUS45 KPUB 271957
MTRSPD
METAR KSPD 271956Z AUTO 20013G19KT 26/10 A3004 RMK AO1 SLP113
T02560100





000
SAUS45 KPUB 271857
MTRSPD
METAR KSPD 271856Z AUTO 20011G18KT 26/12 A3007 RMK AO1 SLP122
T02560122





000
SAUS45 KPUB 271757
MTRSPD
METAR KSPD 271756Z AUTO 19015KT 24/12 A3008 RMK AO1 SLP131 T02440122
10244 20089 56012





000
SAUS45 KPUB 271658
MTRSPD
METAR KSPD 271656Z AUTO 21013G19KT 22/13 A3010 RMK AO1 SLP137
T02220128





000
SAUS45 KPUB 271658
MTRSPD
METAR KSPD 271656Z AUTO 21013G19KT 22/13 A3010 RMK AO1 SLP137
T02220128





000
SAUS45 KPUB 271557
MTRSPD
METAR KSPD 271556Z AUTO 17015KT 21/13 A3010 RMK AO1 SLP142 T02110133





000
SAUS45 KPUB 271457
MTRSPD
METAR KSPD 271456Z AUTO 18012KT 20/13 A3012 RMK AO1 SLP149 T02000133
51004





000
SAUS45 KPUB 271457
MTRSPD
METAR KSPD 271456Z AUTO 18012KT 20/13 A3012 RMK AO1 SLP149 T02000133
51004





000
SAUS45 KPUB 271357
MTRSPD
METAR KSPD 271356Z AUTO 20013KT 17/12 A3012 RMK AO1 SLP152 T01720117





000
SAUS45 KPUB 271357
MTRSPD
METAR KSPD 271356Z AUTO 20013KT 17/12 A3012 RMK AO1 SLP152 T01720117





000
SAUS45 KPUB 271258 COR
MTRSPD
METAR KSPD 271256Z AUTO 23006KT 13/10 A3012 RMK AO1 SLP151 T01330100





000
SAUS45 KPUB 271258 COR
MTRSPD
METAR KSPD 271256Z AUTO 23006KT 13/10 A3012 RMK AO1 SLP151 T01330100





000
SAUS45 KPUB 271257
MTRSPD
METAR KSPD 271256Z AUTO 23006KT 13/10 A3012 RMK AO1 SLP151 T01330100





000
SAUS45 KPUB 271257
MTRSPD
METAR KSPD 271256Z AUTO 23006KT 13/10 A3012 RMK AO1 SLP151 T01330100





000
SAUS45 KPUB 271158
MTRSPD
METAR KSPD 271156Z AUTO 00000KT 09/08 A3011 RMK AO1 SLP150 T00940083
10183 20094 51009





000
SAUS45 KPUB 271158
MTRSPD
METAR KSPD 271156Z AUTO 00000KT 09/08 A3011 RMK AO1 SLP150 T00940083
10183 20094 51009





000
SAUS45 KPUB 271057
MTRSPD
METAR KSPD 271056Z AUTO 28007KT 10/09 A3010 RMK AO1 SLP146 T01000089





000
SAUS45 KPUB 270957
MTRSPD
METAR KSPD 270956Z AUTO 26006KT 12/09 A3010 RMK AO1 SLP145 T01170089





000
SAUS45 KPUB 270857
MTRSPD
METAR KSPD 270856Z AUTO VRB06KT 13/08 A3008 RMK AO1 WSHFT 0743
SLP135 T01280083 55008





000
SAUS45 KPUB 270804
MTRSPD
SPECI KSPD 270803Z AUTO 01006KT 18/06 A3003 RMK AO1 WSHFT 0743
T01780056





000
SAUS45 KPUB 270804
MTRSPD
SPECI KSPD 270803Z AUTO 01006KT 18/06 A3003 RMK AO1 WSHFT 0743
T01780056





000
SAUS45 KPUB 270757
MTRSPD
METAR KSPD 270756Z AUTO 36011KT 18/06 A3003 RMK AO1 SLP113 T01780061





000
SAUS45 KPUB 270657
MTRSPD
METAR KSPD 270656Z AUTO 28014G25KT 17/07 A3007 RMK AO1 WSHFT 0628
SLP130 T01670067 402330078





000
SAUS45 KPUB 270649
MTRSPD
SPECI KSPD 270648Z AUTO 27015G21KT 16/08 A3007 RMK AO1 WSHFT 0628
T01610078





000
SAUS45 KPUB 270649
MTRSPD
SPECI KSPD 270648Z AUTO 27015G21KT 16/08 A3007 RMK AO1 WSHFT 0628
T01610078





000
SAUS45 KPUB 270558
MTRSPD
METAR KSPD 270556Z AUTO 22005KT 16/11 A3010 RMK AO1 SLP145 T01560111
10222 20144 51019





000
SAUS45 KPUB 270457
MTRSPD
METAR KSPD 270456Z AUTO 25007G23KT 230V300 17/12 A3009 RMK AO1
SLP141 T01670117





000
SAUS45 KPUB 270358
MTRSPD
METAR KSPD 270356Z AUTO 16007KT 15/11 A3007 RMK AO1 SLP135 T01500111





000
SAUS45 KPUB 270257
MTRSPD
METAR KSPD 270256Z AUTO 16009KT 16/11 A3004 RMK AO1 SLP126 T01610106
53012





000
SAUS45 KPUB 270257
MTRSPD
METAR KSPD 270256Z AUTO 16009KT 16/11 A3004 RMK AO1 SLP126 T01610106
53012





000
SAUS45 KPUB 270158
MTRSPD
METAR KSPD 270156Z AUTO 15008KT 17/09 A3002 RMK AO1 SLP122 T01720094





000
SAUS45 KPUB 270158
MTRSPD
METAR KSPD 270156Z AUTO 15008KT 17/09 A3002 RMK AO1 SLP122 T01720094





000
SAUS45 KPUB 270057
MTRSPD
METAR KSPD 270056Z AUTO 14007KT 21/09 A3001 RMK AO1 SLP118 T02060089





000
SAUS45 KPUB 262358
MTRSPD
METAR KSPD 262356Z AUTO 13008KT 22/08 A3000 RMK AO1 SLP117 T02220078
10233 20200 56005





000
SAUS45 KPUB 262258
MTRSPD
METAR KSPD 262256Z AUTO 14008KT 22/08 A3000 RMK AO1 SLP118 T02170083





000
SAUS45 KPUB 262258
MTRSPD
METAR KSPD 262256Z AUTO 14008KT 22/08 A3000 RMK AO1 SLP118 T02170083





000
SAUS45 KPUB 262158
MTRSPD
METAR KSPD 262156Z AUTO 12004KT 22/07 A3001 RMK AO1 SLP117 T02170072





000
SAUS45 KPUB 262057
MTRSPD
METAR KSPD 262056Z AUTO 06005KT 22/09 A3002 RMK AO1 SLP120 T02220089
58008





000
SAUS45 KPUB 261957
MTRSPD
METAR KSPD 261956Z AUTO VRB03KT 22/08 A3003 RMK AO1 SLP122 T02220083





000
SAUS45 KPUB 261957
MTRSPD
METAR KSPD 261956Z AUTO VRB03KT 22/08 A3003 RMK AO1 SLP122 T02220083





000
SAUS45 KPUB 261858
MTRSPD
METAR KSPD 261856Z AUTO 02005KT 21/08 A3004 RMK AO1 SLP124 T02110083





000
SAUS45 KPUB 261757
MTRSPD
METAR KSPD 261756Z AUTO 05004KT 20/08 A3004 RMK AO1 SLP128 T02000083
10206 20078 58003





000
SAUS45 KPUB 261657
MTRSPD
METAR KSPD 261656Z AUTO 00000KT 19/08 A3005 RMK AO1 SLP134 T01890078





000
SAUS45 KPUB 261657
MTRSPD
METAR KSPD 261656Z AUTO 00000KT 19/08 A3005 RMK AO1 SLP134 T01890078





000
SAUS45 KPUB 261557
MTRSPD
METAR KSPD 261556Z AUTO 02009KT 18/08 A3005 RMK AO1 SLP133 T01830083





000
SAUS45 KPUB 261557
MTRSPD
METAR KSPD 261556Z AUTO 02009KT 18/08 A3005 RMK AO1 SLP133 T01830083





000
SAUS45 KPUB 261457
MTRSPD
METAR KSPD 261456Z AUTO 04005KT 17/08 A3005 RMK AO1 SLP137 T01670083
51013





000
SAUS45 KPUB 261357
MTRSPD
METAR KSPD 261356Z AUTO 36006KT 14/08 A3005 RMK AO1 SLP136 T01390078





000
SAUS45 KPUB 261357
MTRSPD
METAR KSPD 261356Z AUTO 36006KT 14/08 A3005 RMK AO1 SLP136 T01390078





000
SAUS45 KPUB 261257
MTRSPD
METAR KSPD 261256Z AUTO 32006KT 11/08 A3003 RMK AO1 SLP130 T01060083





000
SAUS45 KPUB 261157
MTRSPD
METAR KSPD 261156Z AUTO 30006KT 08/07 A3001 RMK AO1 SLP123 T00780067
10122 20078 53011





000
SAUS45 KPUB 261157
MTRSPD
METAR KSPD 261156Z AUTO 30006KT 08/07 A3001 RMK AO1 SLP123 T00780067
10122 20078 53011





000
SAUS45 KPUB 261058
MTRSPD
METAR KSPD 261056Z AUTO 32007KT 08/07 A2999 RMK AO1 SLP112 T00830072





    US Dept of Commerce
    National Oceanic and Atmospheric Administration
    National Weather Service
    1325 East West Highway
    Silver Spring, MD 20910
    Page Author: NWS Internet Services Team
Disclaimer
Information Quality
Credits
Glossary
Privacy Policy
Freedom of Information Act (FOIA)
About Us
Career Opportunities